sensor_id;sensor_type;location;lat;lon;timestamp;pressure;altitude;pressure_sealevel;temperature;humidity
79686;BME280;69153;47.918;11.428;2023-07-20T00:01:28;94991.34;;;22.34;51.14
79686;BME280;69153;47.918;11.428;2023-07-20T00:03:54;94994.81;;;22.29;49.76
79686;BME280;69153;47.918;11.428;2023-07-20T00:06:23;94992.13;;;22.29;50.25
79686;BME280;69153;47.918;11.428;2023-07-20T00:08:50;94990.91;;;22.25;48.98
79686;BME280;69153;47.918;11.428;2023-07-20T00:11:16;94992.63;;;22.28;50.30
79686;BME280;69153;47.918;11.428;2023-07-20T00:13:41;94982.25;;;22.37;49.12
79686;BME280;69153;47.918;11.428;2023-07-20T00:16:07;94995.22;;;22.50;49.68
79686;BME280;69153;47.918;11.428;2023-07-20T00:18:32;94992.25;;;22.54;50.31
79686;BME280;69153;47.918;11.428;2023-07-20T00:20:58;94988.81;;;22.53;50.53
79686;BME280;69153;47.918;11.428;2023-07-20T00:23:26;95000.59;;;22.50;51.49
79686;BME280;69153;47.918;11.428;2023-07-20T00:25:51;95010.31;;;22.23;53.05
79686;BME280;69153;47.918;11.428;2023-07-20T00:28:17;95009.13;;;22.13;52.52
79686;BME280;69153;47.918;11.428;2023-07-20T00:30:42;95016.22;;;22.16;52.03
79686;BME280;69153;47.918;11.428;2023-07-20T00:33:11;95003.72;;;22.19;51.93
79686;BME280;69153;47.918;11.428;2023-07-20T00:35:37;95004.41;;;22.30;51.02
79686;BME280;69153;47.918;11.428;2023-07-20T00:38:03;95007.84;;;22.31;50.01
79686;BME280;69153;47.918;11.428;2023-07-20T00:40:35;95012.00;;;22.32;53.00
79686;BME280;69153;47.918;11.428;2023-07-20T00:43:01;95012.25;;;22.23;50.73
79686;BME280;69153;47.918;11.428;2023-07-20T00:45:27;95017.41;;;22.26;49.06
79686;BME280;69153;47.918;11.428;2023-07-20T00:47:53;95003.91;;;22.32;49.24
79686;BME280;69153;47.918;11.428;2023-07-20T00:50:19;95004.34;;;22.36;49.36
79686;BME280;69153;47.918;11.428;2023-07-20T00:52:44;95013.66;;;22.40;50.05
79686;BME280;69153;47.918;11.428;2023-07-20T00:55:10;95022.00;;;22.42;50.84
79686;BME280;69153;47.918;11.428;2023-07-20T00:57:36;95019.31;;;22.37;50.29
79686;BME280;69153;47.918;11.428;2023-07-20T01:00:02;95024.78;;;22.20;49.63
79686;BME280;69153;47.918;11.428;2023-07-20T01:02:28;95015.25;;;22.19;48.97
79686;BME280;69153;47.918;11.428;2023-07-20T01:04:53;95003.66;;;22.24;48.39
79686;BME280;69153;47.918;11.428;2023-07-20T01:07:35;95003.63;;;22.35;48.24
79686;BME280;69153;47.918;11.428;2023-07-20T01:10:10;95000.66;;;22.39;48.00
79686;BME280;69153;47.918;11.428;2023-07-20T01:12:47;94999.84;;;22.55;47.71
79686;BME280;69153;47.918;11.428;2023-07-20T01:15:13;94997.59;;;22.59;47.83
79686;BME280;69153;47.918;11.428;2023-07-20T01:17:39;94991.22;;;22.62;47.45
79686;BME280;69153;47.918;11.428;2023-07-20T01:20:06;94991.50;;;22.59;47.00
79686;BME280;69153;47.918;11.428;2023-07-20T01:25:44;95003.34;;;22.44;48.11
79686;BME280;69153;47.918;11.428;2023-07-20T01:31:21;95001.94;;;22.32;49.01
79686;BME280;69153;47.918;11.428;2023-07-20T01:33:50;95003.91;;;22.32;48.33
79686;BME280;69153;47.918;11.428;2023-07-20T01:36:18;94997.03;;;22.31;48.87
79686;BME280;69153;47.918;11.428;2023-07-20T01:38:45;94987.47;;;22.30;48.50
79686;BME280;69153;47.918;11.428;2023-07-20T01:41:11;94986.47;;;22.33;48.49
79686;BME280;69153;47.918;11.428;2023-07-20T01:43:37;94985.22;;;22.34;48.87
79686;BME280;69153;47.918;11.428;2023-07-20T01:46:02;94997.97;;;22.39;48.88
79686;BME280;69153;47.918;11.428;2023-07-20T01:48:28;95000.66;;;22.44;49.33
79686;BME280;69153;47.918;11.428;2023-07-20T01:50:53;94991.03;;;22.49;48.62
79686;BME280;69153;47.918;11.428;2023-07-20T01:53:20;94990.38;;;22.37;48.42
79686;BME280;69153;47.918;11.428;2023-07-20T01:55:46;94991.88;;;22.27;48.43
79686;BME280;69153;47.918;11.428;2023-07-20T01:58:11;94995.56;;;22.24;48.23
79686;BME280;69153;47.918;11.428;2023-07-20T02:00:37;95011.03;;;22.24;47.15
79686;BME280;69153;47.918;11.428;2023-07-20T02:03:02;95005.38;;;22.33;48.39
79686;BME280;69153;47.918;11.428;2023-07-20T02:05:28;94997.44;;;22.46;47.34
79686;BME280;69153;47.918;11.428;2023-07-20T02:07:53;94984.38;;;22.56;46.33
79686;BME280;69153;47.918;11.428;2023-07-20T02:10:19;94992.44;;;22.61;46.97
79686;BME280;69153;47.918;11.428;2023-07-20T02:12:44;94998.38;;;22.54;48.03
79686;BME280;69153;47.918;11.428;2023-07-20T02:15:10;95003.97;;;22.62;48.46
79686;BME280;69153;47.918;11.428;2023-07-20T02:17:36;95001.59;;;22.53;47.95
79686;BME280;69153;47.918;11.428;2023-07-20T02:20:02;94997.41;;;22.52;47.58
79686;BME280;69153;47.918;11.428;2023-07-20T02:22:28;94991.28;;;22.51;47.04
79686;BME280;69153;47.918;11.428;2023-07-20T02:24:53;94999.19;;;22.43;47.43
79686;BME280;69153;47.918;11.428;2023-07-20T02:27:19;94997.66;;;22.48;48.74
79686;BME280;69153;47.918;11.428;2023-07-20T02:29:44;94990.34;;;22.43;50.17
79686;BME280;69153;47.918;11.428;2023-07-20T02:32:10;94989.63;;;22.42;50.12
79686;BME280;69153;47.918;11.428;2023-07-20T02:34:36;94992.81;;;22.41;50.58
79686;BME280;69153;47.918;11.428;2023-07-20T02:37:01;94995.50;;;22.41;51.82
79686;BME280;69153;47.918;11.428;2023-07-20T02:39:28;94996.75;;;22.40;52.41
79686;BME280;69153;47.918;11.428;2023-07-20T02:41:53;94995.28;;;22.33;52.46
79686;BME280;69153;47.918;11.428;2023-07-20T02:44:19;95001.22;;;22.26;53.08
79686;BME280;69153;47.918;11.428;2023-07-20T02:46:45;94997.31;;;22.22;53.28
79686;BME280;69153;47.918;11.428;2023-07-20T02:49:10;95001.03;;;22.13;54.00
79686;BME280;69153;47.918;11.428;2023-07-20T02:51:35;95011.56;;;22.17;53.83
79686;BME280;69153;47.918;11.428;2023-07-20T02:54:01;95015.75;;;22.18;53.86
79686;BME280;69153;47.918;11.428;2023-07-20T02:56:27;95012.06;;;22.15;53.91
79686;BME280;69153;47.918;11.428;2023-07-20T02:58:52;95010.59;;;22.14;51.44
79686;BME280;69153;47.918;11.428;2023-07-20T03:01:18;94999.53;;;22.18;48.43
79686;BME280;69153;47.918;11.428;2023-07-20T03:03:43;94997.09;;;22.20;48.80
79686;BME280;69153;47.918;11.428;2023-07-20T03:06:15;94996.34;;;22.19;48.80
79686;BME280;69153;47.918;11.428;2023-07-20T03:08:42;94996.34;;;22.14;48.03
79686;BME280;69153;47.918;11.428;2023-07-20T03:11:13;94998.13;;;22.05;47.98
79686;BME280;69153;47.918;11.428;2023-07-20T03:13:39;95006.97;;;22.00;47.73
79686;BME280;69153;47.918;11.428;2023-07-20T03:16:04;95013.09;;;22.01;47.97
79686;BME280;69153;47.918;11.428;2023-07-20T03:18:30;95025.09;;;22.00;46.73
79686;BME280;69153;47.918;11.428;2023-07-20T03:20:56;95026.78;;;21.97;47.06
79686;BME280;69153;47.918;11.428;2023-07-20T03:23:21;95021.19;;;22.01;47.50
79686;BME280;69153;47.918;11.428;2023-07-20T03:25:47;95026.56;;;22.06;46.36
79686;BME280;69153;47.918;11.428;2023-07-20T03:28:12;95029.28;;;22.06;44.93
79686;BME280;69153;47.918;11.428;2023-07-20T03:30:37;95034.41;;;22.04;46.69
79686;BME280;69153;47.918;11.428;2023-07-20T03:33:03;95051.31;;;22.10;45.87
79686;BME280;69153;47.918;11.428;2023-07-20T03:35:29;95051.78;;;22.20;45.54
79686;BME280;69153;47.918;11.428;2023-07-20T03:37:55;95063.34;;;22.09;46.42
79686;BME280;69153;47.918;11.428;2023-07-20T03:40:20;95063.84;;;22.08;46.56
79686;BME280;69153;47.918;11.428;2023-07-20T03:42:45;95059.19;;;22.03;47.37
79686;BME280;69153;47.918;11.428;2023-07-20T03:45:11;95058.22;;;22.00;47.45
79686;BME280;69153;47.918;11.428;2023-07-20T03:47:36;95054.53;;;21.92;47.84
79686;BME280;69153;47.918;11.428;2023-07-20T03:50:02;95063.16;;;21.80;47.93
79686;BME280;69153;47.918;11.428;2023-07-20T03:52:28;95048.69;;;21.66;48.91
79686;BME280;69153;47.918;11.428;2023-07-20T03:54:54;95055.78;;;21.58;49.55
79686;BME280;69153;47.918;11.428;2023-07-20T03:57:19;95058.25;;;21.50;49.24
79686;BME280;69153;47.918;11.428;2023-07-20T03:59:45;95071.25;;;21.46;49.11
79686;BME280;69153;47.918;11.428;2023-07-20T04:02:11;95081.53;;;21.31;50.39
79686;BME280;69153;47.918;11.428;2023-07-20T04:04:37;95089.31;;;21.18;49.88
79686;BME280;69153;47.918;11.428;2023-07-20T04:07:02;95083.66;;;21.04;50.66
79686;BME280;69153;47.918;11.428;2023-07-20T04:09:28;95075.09;;;20.95;50.75
79686;BME280;69153;47.918;11.428;2023-07-20T04:11:53;95076.53;;;20.90;51.59
79686;BME280;69153;47.918;11.428;2023-07-20T04:14:19;95079.75;;;20.89;50.98
79686;BME280;69153;47.918;11.428;2023-07-20T04:16:47;95083.56;;;20.65;52.41
79686;BME280;69153;47.918;11.428;2023-07-20T04:19:12;95082.53;;;20.52;52.93
79686;BME280;69153;47.918;11.428;2023-07-20T04:21:41;95073.94;;;20.42;52.95
79686;BME280;69153;47.918;11.428;2023-07-20T04:24:07;95077.06;;;20.35;54.24
79686;BME280;69153;47.918;11.428;2023-07-20T04:26:32;95085.38;;;20.31;55.36
79686;BME280;69153;47.918;11.428;2023-07-20T04:28:58;95083.16;;;20.24;55.67
79686;BME280;69153;47.918;11.428;2023-07-20T04:31:25;95074.34;;;20.29;55.96
79686;BME280;69153;47.918;11.428;2023-07-20T04:33:50;95084.41;;;20.34;54.21
79686;BME280;69153;47.918;11.428;2023-07-20T04:36:16;95097.50;;;20.16;55.05
79686;BME280;69153;47.918;11.428;2023-07-20T04:38:45;95098.56;;;19.87;55.83
79686;BME280;69153;47.918;11.428;2023-07-20T04:41:11;95094.81;;;19.73;56.05
79686;BME280;69153;47.918;11.428;2023-07-20T04:43:41;95103.13;;;19.75;56.28
79686;BME280;69153;47.918;11.428;2023-07-20T04:46:07;95109.75;;;19.80;56.01
79686;BME280;69153;47.918;11.428;2023-07-20T04:48:32;95109.63;;;19.94;55.99
79686;BME280;69153;47.918;11.428;2023-07-20T04:50:57;95104.72;;;19.93;55.00
79686;BME280;69153;47.918;11.428;2023-07-20T04:53:23;95107.94;;;19.97;54.69
79686;BME280;69153;47.918;11.428;2023-07-20T04:55:50;95110.22;;;19.73;55.34
79686;BME280;69153;47.918;11.428;2023-07-20T04:58:21;95100.84;;;19.62;55.89
79686;BME280;69153;47.918;11.428;2023-07-20T05:00:48;95104.56;;;19.71;56.14
79686;BME280;69153;47.918;11.428;2023-07-20T05:03:14;95105.91;;;19.55;57.08
79686;BME280;69153;47.918;11.428;2023-07-20T05:05:39;95114.41;;;19.79;56.87
79686;BME280;69153;47.918;11.428;2023-07-20T05:08:05;95103.78;;;19.96;56.54
79686;BME280;69153;47.918;11.428;2023-07-20T05:10:31;95099.63;;;20.01;57.21
79686;BME280;69153;47.918;11.428;2023-07-20T05:12:58;95105.38;;;19.82;57.71
79686;BME280;69153;47.918;11.428;2023-07-20T05:15:23;95108.56;;;19.86;58.69
79686;BME280;69153;47.918;11.428;2023-07-20T05:17:48;95105.53;;;20.05;58.59
79686;BME280;69153;47.918;11.428;2023-07-20T05:20:14;95106.78;;;20.09;59.00
79686;BME280;69153;47.918;11.428;2023-07-20T05:22:40;95105.16;;;20.23;58.23
79686;BME280;69153;47.918;11.428;2023-07-20T05:25:10;95092.72;;;20.31;57.99
79686;BME280;69153;47.918;11.428;2023-07-20T05:27:39;95091.78;;;20.40;57.55
79686;BME280;69153;47.918;11.428;2023-07-20T05:30:06;95102.63;;;20.14;59.17
79686;BME280;69153;47.918;11.428;2023-07-20T05:32:32;95106.53;;;20.13;59.06
79686;BME280;69153;47.918;11.428;2023-07-20T05:34:58;95104.44;;;20.28;58.61
79686;BME280;69153;47.918;11.428;2023-07-20T05:37:23;95100.03;;;20.25;58.67
79686;BME280;69153;47.918;11.428;2023-07-20T05:39:49;95105.94;;;19.92;59.39
79686;BME280;69153;47.918;11.428;2023-07-20T05:42:15;95097.19;;;19.66;60.30
79686;BME280;69153;47.918;11.428;2023-07-20T05:44:40;95105.13;;;19.49;60.87
79686;BME280;69153;47.918;11.428;2023-07-20T05:47:06;95099.88;;;19.34;60.88
79686;BME280;69153;47.918;11.428;2023-07-20T05:49:31;95104.31;;;18.91;62.15
79686;BME280;69153;47.918;11.428;2023-07-20T05:51:57;95107.94;;;19.08;62.22
79686;BME280;69153;47.918;11.428;2023-07-20T05:54:25;95111.97;;;19.50;61.88
79686;BME280;69153;47.918;11.428;2023-07-20T05:56:51;95105.28;;;19.40;61.02
79686;BME280;69153;47.918;11.428;2023-07-20T05:59:16;95115.19;;;19.28;61.49
79686;BME280;69153;47.918;11.428;2023-07-20T06:01:44;95115.81;;;19.43;60.69
79686;BME280;69153;47.918;11.428;2023-07-20T06:04:09;95118.06;;;19.24;62.01
79686;BME280;69153;47.918;11.428;2023-07-20T06:06:34;95125.50;;;19.61;61.28
79686;BME280;69153;47.918;11.428;2023-07-20T06:09:00;95121.81;;;19.90;60.73
79686;BME280;69153;47.918;11.428;2023-07-20T06:11:30;95127.09;;;20.10;59.13
79686;BME280;69153;47.918;11.428;2023-07-20T06:13:56;95131.72;;;20.10;59.19
79686;BME280;69153;47.918;11.428;2023-07-20T06:16:21;95133.13;;;19.99;59.56
79686;BME280;69153;47.918;11.428;2023-07-20T06:18:47;95130.88;;;19.92;60.12
79686;BME280;69153;47.918;11.428;2023-07-20T06:21:12;95131.00;;;19.78;60.28
79686;BME280;69153;47.918;11.428;2023-07-20T06:23:38;95138.03;;;19.70;60.56
79686;BME280;69153;47.918;11.428;2023-07-20T06:26:05;95125.72;;;19.32;61.86
79686;BME280;69153;47.918;11.428;2023-07-20T06:28:30;95123.72;;;19.26;62.94
79686;BME280;69153;47.918;11.428;2023-07-20T06:31:00;95119.34;;;19.29;63.22
79686;BME280;69153;47.918;11.428;2023-07-20T06:33:26;95121.94;;;19.18;63.26
79686;BME280;69153;47.918;11.428;2023-07-20T06:35:51;95119.88;;;19.59;62.51
79686;BME280;69153;47.918;11.428;2023-07-20T06:38:18;95115.44;;;19.87;61.48
79686;BME280;69153;47.918;11.428;2023-07-20T06:40:46;95115.53;;;19.98;59.75
79686;BME280;69153;47.918;11.428;2023-07-20T06:43:12;95124.06;;;19.97;59.59
79686;BME280;69153;47.918;11.428;2023-07-20T06:45:37;95126.34;;;19.47;60.64
79686;BME280;69153;47.918;11.428;2023-07-20T06:48:03;95125.69;;;19.52;61.27
79686;BME280;69153;47.918;11.428;2023-07-20T06:50:29;95128.78;;;19.45;61.63
79686;BME280;69153;47.918;11.428;2023-07-20T06:52:55;95130.53;;;19.79;61.47
79686;BME280;69153;47.918;11.428;2023-07-20T06:55:20;95116.34;;;19.73;61.00
79686;BME280;69153;47.918;11.428;2023-07-20T06:57:46;95125.28;;;19.39;62.75
79686;BME280;69153;47.918;11.428;2023-07-20T07:00:12;95129.19;;;19.38;62.65
79686;BME280;69153;47.918;11.428;2023-07-20T07:02:38;95132.72;;;19.49;61.98
79686;BME280;69153;47.918;11.428;2023-07-20T07:05:03;95122.53;;;19.85;61.46
79686;BME280;69153;47.918;11.428;2023-07-20T07:07:29;95121.38;;;19.40;62.77
79686;BME280;69153;47.918;11.428;2023-07-20T07:09:54;95119.28;;;19.23;62.38
79686;BME280;69153;47.918;11.428;2023-07-20T07:12:20;95115.66;;;19.52;61.94
79686;BME280;69153;47.918;11.428;2023-07-20T07:14:45;95118.09;;;19.82;61.32
79686;BME280;69153;47.918;11.428;2023-07-20T07:17:11;95123.75;;;19.84;59.50
79686;BME280;69153;47.918;11.428;2023-07-20T07:19:36;95122.38;;;19.68;60.16
79686;BME280;69153;47.918;11.428;2023-07-20T07:22:03;95122.69;;;19.76;59.95
79686;BME280;69153;47.918;11.428;2023-07-20T07:24:28;95122.53;;;19.85;59.78
79686;BME280;69153;47.918;11.428;2023-07-20T07:26:59;95132.91;;;20.03;59.76
79686;BME280;69153;47.918;11.428;2023-07-20T07:29:25;95129.72;;;19.99;58.50
79686;BME280;69153;47.918;11.428;2023-07-20T07:31:51;95126.50;;;19.95;58.77
79686;BME280;69153;47.918;11.428;2023-07-20T07:34:16;95133.22;;;20.16;58.68
79686;BME280;69153;47.918;11.428;2023-07-20T07:36:42;95127.72;;;19.94;59.00
79686;BME280;69153;47.918;11.428;2023-07-20T07:39:07;95134.50;;;20.21;59.12
79686;BME280;69153;47.918;11.428;2023-07-20T07:41:33;95132.75;;;20.60;57.33
79686;BME280;69153;47.918;11.428;2023-07-20T07:43:58;95117.47;;;21.00;56.76
79686;BME280;69153;47.918;11.428;2023-07-20T07:46:24;95109.97;;;21.26;54.87
79686;BME280;69153;47.918;11.428;2023-07-20T07:48:49;95114.63;;;21.37;54.32
79686;BME280;69153;47.918;11.428;2023-07-20T07:51:15;95112.09;;;21.17;54.71
79686;BME280;69153;47.918;11.428;2023-07-20T07:53:40;95121.41;;;21.10;55.34
79686;BME280;69153;47.918;11.428;2023-07-20T07:56:09;95127.53;;;21.11;54.26
79686;BME280;69153;47.918;11.428;2023-07-20T07:58:35;95131.03;;;21.33;54.37
79686;BME280;69153;47.918;11.428;2023-07-20T08:01:00;95121.00;;;21.39;52.80
79686;BME280;69153;47.918;11.428;2023-07-20T08:03:26;95132.25;;;21.21;53.37
79686;BME280;69153;47.918;11.428;2023-07-20T08:05:55;95126.63;;;21.36;53.29
79686;BME280;69153;47.918;11.428;2023-07-20T08:08:21;95122.94;;;21.28;53.55
79686;BME280;69153;47.918;11.428;2023-07-20T08:10:46;95126.31;;;21.17;53.38
79686;BME280;69153;47.918;11.428;2023-07-20T08:13:13;95123.91;;;21.30;53.76
79686;BME280;69153;47.918;11.428;2023-07-20T08:15:39;95124.16;;;21.32;53.65
79686;BME280;69153;47.918;11.428;2023-07-20T08:18:05;95120.25;;;21.45;53.85
79686;BME280;69153;47.918;11.428;2023-07-20T08:20:31;95122.94;;;21.45;52.46
79686;BME280;69153;47.918;11.428;2023-07-20T08:22:57;95120.00;;;21.43;51.95
79686;BME280;69153;47.918;11.428;2023-07-20T08:25:25;95132.53;;;21.57;52.01
79686;BME280;69153;47.918;11.428;2023-07-20T08:27:50;95124.63;;;21.20;51.65
79686;BME280;69153;47.918;11.428;2023-07-20T08:30:16;95132.25;;;21.21;51.45
79686;BME280;69153;47.918;11.428;2023-07-20T08:32:42;95132.25;;;21.27;51.14
79686;BME280;69153;47.918;11.428;2023-07-20T08:35:08;95135.84;;;21.01;49.93
79686;BME280;69153;47.918;11.428;2023-07-20T08:37:33;95133.09;;;20.85;50.39
79686;BME280;69153;47.918;11.428;2023-07-20T08:39:59;95130.03;;;21.20;50.53
79686;BME280;69153;47.918;11.428;2023-07-20T08:42:25;95138.63;;;21.24;48.98
79686;BME280;69153;47.918;11.428;2023-07-20T08:44:52;95137.41;;;21.36;48.89
79686;BME280;69153;47.918;11.428;2023-07-20T08:47:20;95130.81;;;21.54;49.54
79686;BME280;69153;47.918;11.428;2023-07-20T08:49:48;95129.34;;;21.92;47.96
79686;BME280;69153;47.918;11.428;2023-07-20T08:52:15;95127.63;;;21.83;48.52
79686;BME280;69153;47.918;11.428;2023-07-20T08:54:41;95126.66;;;21.81;48.14
79686;BME280;69153;47.918;11.428;2023-07-20T08:57:08;95119.28;;;22.15;47.70
79686;BME280;69153;47.918;11.428;2023-07-20T08:59:36;95108.63;;;22.50;47.16
79686;BME280;69153;47.918;11.428;2023-07-20T09:02:02;95111.56;;;22.46;45.36
79686;BME280;69153;47.918;11.428;2023-07-20T09:04:29;95098.63;;;22.28;46.07
79686;BME280;69153;47.918;11.428;2023-07-20T09:06:56;95105.56;;;21.79;47.02
79686;BME280;69153;47.918;11.428;2023-07-20T09:09:22;95105.19;;;22.50;46.50
79686;BME280;69153;47.918;11.428;2023-07-20T09:11:49;95104.97;;;23.00;45.00
79686;BME280;69153;47.918;11.428;2023-07-20T09:14:14;95107.94;;;23.02;44.71
79686;BME280;69153;47.918;11.428;2023-07-20T09:16:52;95103.84;;;23.25;44.44
79686;BME280;69153;47.918;11.428;2023-07-20T09:19:18;95090.69;;;23.46;43.64
79686;BME280;69153;47.918;11.428;2023-07-20T09:21:45;95085.22;;;23.57;43.04
79686;BME280;69153;47.918;11.428;2023-07-20T09:24:12;95091.09;;;23.61;43.05
79686;BME280;69153;47.918;11.428;2023-07-20T09:26:42;95090.25;;;23.72;41.22
79686;BME280;69153;47.918;11.428;2023-07-20T09:29:11;95086.97;;;23.55;40.75
79686;BME280;69153;47.918;11.428;2023-07-20T09:31:37;95100.41;;;22.84;42.28
79686;BME280;69153;47.918;11.428;2023-07-20T09:34:04;95091.44;;;22.48;42.91
79686;BME280;69153;47.918;11.428;2023-07-20T09:36:36;95089.91;;;22.69;43.72
79686;BME280;69153;47.918;11.428;2023-07-20T09:39:03;95086.53;;;23.39;41.96
79686;BME280;69153;47.918;11.428;2023-07-20T09:41:30;95090.16;;;23.83;41.33
79686;BME280;69153;47.918;11.428;2023-07-20T09:43:55;95093.25;;;23.93;39.77
79686;BME280;69153;47.918;11.428;2023-07-20T09:46:22;95088.19;;;24.08;40.27
79686;BME280;69153;47.918;11.428;2023-07-20T09:48:54;95088.59;;;24.17;41.09
79686;BME280;69153;47.918;11.428;2023-07-20T09:51:22;95090.44;;;24.34;40.08
79686;BME280;69153;47.918;11.428;2023-07-20T09:53:54;95081.72;;;24.41;39.03
79686;BME280;69153;47.918;11.428;2023-07-20T09:56:21;95081.19;;;23.94;39.42
79686;BME280;69153;47.918;11.428;2023-07-20T09:58:48;95085.75;;;23.80;40.20
79686;BME280;69153;47.918;11.428;2023-07-20T10:01:18;95080.41;;;23.74;40.96
79686;BME280;69153;47.918;11.428;2023-07-20T10:03:47;95085.97;;;24.12;40.58
79686;BME280;69153;47.918;11.428;2023-07-20T10:06:15;95090.63;;;24.11;40.35
79686;BME280;69153;47.918;11.428;2023-07-20T10:08:47;95091.25;;;24.47;40.39
79686;BME280;69153;47.918;11.428;2023-07-20T10:11:15;95088.69;;;24.36;40.39
79686;BME280;69153;47.918;11.428;2023-07-20T10:13:43;95080.66;;;24.68;40.17
79686;BME280;69153;47.918;11.428;2023-07-20T10:16:11;95083.06;;;24.53;40.31
79686;BME280;69153;47.918;11.428;2023-07-20T10:18:57;95074.94;;;24.04;40.68
79686;BME280;69153;47.918;11.428;2023-07-20T10:21:25;95074.56;;;24.43;40.41
79686;BME280;69153;47.918;11.428;2023-07-20T10:23:51;95066.59;;;24.70;40.19
79686;BME280;69153;47.918;11.428;2023-07-20T10:26:16;95073.66;;;25.16;39.70
79686;BME280;69153;47.918;11.428;2023-07-20T10:28:42;95067.22;;;25.32;38.99
79686;BME280;69153;47.918;11.428;2023-07-20T10:31:11;95066.69;;;25.52;38.27
79686;BME280;69153;47.918;11.428;2023-07-20T10:33:38;95064.25;;;25.68;38.51
79686;BME280;69153;47.918;11.428;2023-07-20T10:36:04;95066.31;;;25.61;37.78
79686;BME280;69153;47.918;11.428;2023-07-20T10:43:48;95047.69;;;25.20;39.67
79686;BME280;69153;47.918;11.428;2023-07-20T10:46:14;95059.59;;;24.99;37.38
79686;BME280;69153;47.918;11.428;2023-07-20T10:49:00;95046.81;;;25.31;38.61
79686;BME280;69153;47.918;11.428;2023-07-20T10:51:27;95049.03;;;25.59;37.59
79686;BME280;69153;47.918;11.428;2023-07-20T10:53:55;95049.28;;;25.29;35.54
79686;BME280;69153;47.918;11.428;2023-07-20T10:56:24;95050.34;;;25.39;36.95
79686;BME280;69153;47.918;11.428;2023-07-20T10:58:56;95053.94;;;25.60;36.51
79686;BME280;69153;47.918;11.428;2023-07-20T11:01:30;95047.34;;;25.88;36.21
79686;BME280;69153;47.918;11.428;2023-07-20T11:03:59;95040.66;;;25.89;36.30
79686;BME280;69153;47.918;11.428;2023-07-20T11:09:10;95038.47;;;26.01;35.64
79686;BME280;69153;47.918;11.428;2023-07-20T11:11:48;95045.56;;;25.77;35.25
79686;BME280;69153;47.918;11.428;2023-07-20T11:14:22;95044.22;;;26.10;33.22
79686;BME280;69153;47.918;11.428;2023-07-20T11:16:49;95035.25;;;26.42;33.05
79686;BME280;69153;47.918;11.428;2023-07-20T11:19:24;95027.00;;;26.47;34.34
79686;BME280;69153;47.918;11.428;2023-07-20T11:21:57;95025.13;;;26.42;32.29
79686;BME280;69153;47.918;11.428;2023-07-20T11:24:23;95027.13;;;26.28;31.95
79686;BME280;69153;47.918;11.428;2023-07-20T11:26:51;95025.94;;;26.11;32.18
79686;BME280;69153;47.918;11.428;2023-07-20T11:29:21;95013.09;;;26.11;32.74
79686;BME280;69153;47.918;11.428;2023-07-20T11:31:48;95005.28;;;25.94;33.81
79686;BME280;69153;47.918;11.428;2023-07-20T11:34:16;95009.34;;;26.14;35.19
79686;BME280;69153;47.918;11.428;2023-07-20T11:36:51;95007.56;;;26.43;33.68
79686;BME280;69153;47.918;11.428;2023-07-20T11:39:18;95008.03;;;26.68;33.49
79686;BME280;69153;47.918;11.428;2023-07-20T11:41:49;95004.19;;;26.97;32.62
79686;BME280;69153;47.918;11.428;2023-07-20T11:44:19;95009.50;;;27.03;32.13
79686;BME280;69153;47.918;11.428;2023-07-20T11:46:46;95007.78;;;27.13;31.46
79686;BME280;69153;47.918;11.428;2023-07-20T11:49:12;94999.69;;;27.21;29.75
79686;BME280;69153;47.918;11.428;2023-07-20T11:51:40;94991.34;;;26.38;31.21
79686;BME280;69153;47.918;11.428;2023-07-20T11:54:07;94990.25;;;25.80;33.90
79686;BME280;69153;47.918;11.428;2023-07-20T11:56:33;95001.31;;;25.82;34.27
79686;BME280;69153;47.918;11.428;2023-07-20T11:58:59;94995.03;;;26.01;33.37
79686;BME280;69153;47.918;11.428;2023-07-20T12:01:28;95000.56;;;26.21;33.64
79686;BME280;69153;47.918;11.428;2023-07-20T12:04:02;94992.00;;;26.17;33.34
79686;BME280;69153;47.918;11.428;2023-07-20T12:06:28;94989.53;;;26.66;32.66
79686;BME280;69153;47.918;11.428;2023-07-20T12:08:55;94989.75;;;26.89;32.14
79686;BME280;69153;47.918;11.428;2023-07-20T12:11:38;94984.50;;;26.71;32.90
79686;BME280;69153;47.918;11.428;2023-07-20T12:14:07;94984.41;;;26.63;32.43
79686;BME280;69153;47.918;11.428;2023-07-20T12:16:34;94983.53;;;26.47;32.98
79686;BME280;69153;47.918;11.428;2023-07-20T12:19:08;94979.41;;;26.54;32.78
79686;BME280;69153;47.918;11.428;2023-07-20T12:21:35;94972.72;;;26.55;33.13
79686;BME280;69153;47.918;11.428;2023-07-20T12:24:06;94970.69;;;26.68;32.46
79686;BME280;69153;47.918;11.428;2023-07-20T12:26:33;94969.66;;;26.72;33.03
79686;BME280;69153;47.918;11.428;2023-07-20T12:28:59;94956.53;;;26.83;32.21
79686;BME280;69153;47.918;11.428;2023-07-20T12:31:26;94966.84;;;26.98;32.15
79686;BME280;69153;47.918;11.428;2023-07-20T12:33:52;94954.44;;;27.10;32.70
79686;BME280;69153;47.918;11.428;2023-07-20T12:36:19;94954.16;;;27.00;32.14
79686;BME280;69153;47.918;11.428;2023-07-20T12:38:45;94963.13;;;27.09;31.34
79686;BME280;69153;47.918;11.428;2023-07-20T12:41:12;94957.94;;;27.39;30.97
79686;BME280;69153;47.918;11.428;2023-07-20T12:43:39;94952.59;;;27.26;29.82
79686;BME280;69153;47.918;11.428;2023-07-20T12:46:05;94948.59;;;27.06;30.36
79686;BME280;69153;47.918;11.428;2023-07-20T12:48:31;94945.75;;;27.12;30.54
79686;BME280;69153;47.918;11.428;2023-07-20T12:50:56;94945.69;;;27.04;32.40
79686;BME280;69153;47.918;11.428;2023-07-20T12:53:22;94948.88;;;26.95;32.89
79686;BME280;69153;47.918;11.428;2023-07-20T12:55:47;94933.06;;;26.73;32.44
79686;BME280;69153;47.918;11.428;2023-07-20T12:58:13;94935.94;;;26.54;32.58
79686;BME280;69153;47.918;11.428;2023-07-20T13:00:39;94929.03;;;26.53;33.59
79686;BME280;69153;47.918;11.428;2023-07-20T13:03:04;94929.28;;;26.42;32.51